createdAt,value
2017-12-28T00:00:59.439Z,2.80
2017-12-28T00:03:26.608Z,2.60
2017-12-28T00:05:53.008Z,2.60
2017-12-28T00:08:19.413Z,2.60
2017-12-28T00:10:45.762Z,2.60
2017-12-28T00:13:12.911Z,2.70
2017-12-28T00:15:40.071Z,2.70
2017-12-28T00:18:07.241Z,2.80
2017-12-28T00:20:34.365Z,2.80
2017-12-28T00:23:00.767Z,2.80
2017-12-28T00:25:27.187Z,2.80
2017-12-28T00:27:55.126Z,2.80
2017-12-28T00:30:21.490Z,2.80
2017-12-28T00:32:48.700Z,2.90
2017-12-28T00:35:15.074Z,2.90
2017-12-28T00:37:41.427Z,3.20
2017-12-28T00:40:08.156Z,2.90
2017-12-28T00:42:34.547Z,2.90
2017-12-28T00:45:00.917Z,2.90
2017-12-28T00:47:27.360Z,2.90
2017-12-28T00:49:54.459Z,2.80
2017-12-28T00:52:20.881Z,2.80
2017-12-28T00:54:47.234Z,2.90
2017-12-28T00:57:13.611Z,2.90
2017-12-28T00:59:40.730Z,2.90
2017-12-28T01:02:07.219Z,2.70
2017-12-28T01:04:33.659Z,2.90
2017-12-28T01:07:00.005Z,2.90
2017-12-28T01:09:26.374Z,2.90
2017-12-28T01:11:53.456Z,2.90
2017-12-28T01:14:19.778Z,2.90
2017-12-28T01:16:46.926Z,3.00
2017-12-28T01:19:14.033Z,3.00
2017-12-28T01:21:40.379Z,3.00
2017-12-28T01:24:06.829Z,3.10
2017-12-28T01:26:33.222Z,2.90
2017-12-28T01:29:00.305Z,2.90
2017-12-28T01:31:26.643Z,2.80
2017-12-28T01:33:53.474Z,2.80
2017-12-28T01:36:20.547Z,2.80
2017-12-28T01:38:46.985Z,2.80
2017-12-28T01:41:14.119Z,2.80
2017-12-28T01:43:40.460Z,2.80
2017-12-28T01:46:07.086Z,2.90
2017-12-28T01:48:34.240Z,2.90
2017-12-28T01:51:00.623Z,2.90
2017-12-28T01:53:26.966Z,3.00
2017-12-28T01:55:53.419Z,3.00
2017-12-28T01:58:19.759Z,2.90
2017-12-28T02:00:46.110Z,2.90
2017-12-28T02:03:12.505Z,2.90
2017-12-28T02:05:38.875Z,2.90
2017-12-28T02:08:05.708Z,2.90
2017-12-28T02:10:32.092Z,2.90
2017-12-28T02:12:58.426Z,2.80
2017-12-28T02:15:25.586Z,2.60
2017-12-28T02:17:51.980Z,2.50
2017-12-28T02:20:18.318Z,2.40
2017-12-28T02:22:45.391Z,2.10
2017-12-28T02:25:11.727Z,2.10
2017-12-28T02:27:38.103Z,2.00
2017-12-28T02:30:05.044Z,1.90
2017-12-28T02:32:31.435Z,1.80
2017-12-28T02:34:57.780Z,1.80
2017-12-28T02:37:24.147Z,1.70
2017-12-28T02:39:50.512Z,1.80
2017-12-28T02:42:16.843Z,1.70
2017-12-28T02:44:43.930Z,1.70
2017-12-28T02:47:10.279Z,1.60
2017-12-28T02:49:36.634Z,1.60
2017-12-28T02:52:04.073Z,1.50
2017-12-28T02:54:30.495Z,1.50
2017-12-28T02:56:56.848Z,1.50
2017-12-28T02:59:23.207Z,1.40
2017-12-28T03:01:49.753Z,1.30
2017-12-28T03:04:16.150Z,1.30
2017-12-28T03:06:43.239Z,1.30
2017-12-28T03:09:09.629Z,1.20
2017-12-28T03:11:36.016Z,1.30
2017-12-28T03:14:03.821Z,1.20
2017-12-28T03:16:30.294Z,1.10
2017-12-28T03:18:56.847Z,1.20
2017-12-28T03:21:23.203Z,1.10
2017-12-28T03:23:49.535Z,1.10
2017-12-28T03:26:16.703Z,1.00
2017-12-28T03:28:43.851Z,1.00
2017-12-28T03:31:10.216Z,1.00
2017-12-28T03:33:36.651Z,1.00
2017-12-28T03:36:04.385Z,1.10
2017-12-28T03:38:31.095Z,1.10
2017-12-28T03:40:57.707Z,1.10
2017-12-28T03:43:24.131Z,1.10
2017-12-28T03:45:50.482Z,1.10
2017-12-28T03:48:16.823Z,1.20
2017-12-28T03:50:43.164Z,1.10
2017-12-28T03:53:09.519Z,1.20
2017-12-28T03:55:35.859Z,1.30
2017-12-28T03:58:02.493Z,1.30
2017-12-28T04:00:28.995Z,1.40
2017-12-28T04:02:56.142Z,1.40
2017-12-28T04:05:22.483Z,1.40
2017-12-28T04:07:48.815Z,1.50
2017-12-28T04:10:15.287Z,1.50
2017-12-28T04:12:41.654Z,1.40
2017-12-28T04:15:08.071Z,1.40
2017-12-28T04:17:35.281Z,1.40
2017-12-28T04:20:01.665Z,1.40
2017-12-28T04:22:28.791Z,1.60
2017-12-28T04:24:55.173Z,1.60
2017-12-28T04:27:22.342Z,1.80
2017-12-28T04:29:48.678Z,1.80
2017-12-28T04:32:15.871Z,1.80
2017-12-28T04:34:42.238Z,1.70
2017-12-28T04:37:08.624Z,1.70
2017-12-28T04:39:35.744Z,1.80
2017-12-28T04:42:02.395Z,1.90
2017-12-28T04:44:28.787Z,1.80
2017-12-28T04:46:55.875Z,1.70
2017-12-28T04:49:22.247Z,1.70
2017-12-28T04:51:48.598Z,1.80
2017-12-28T04:54:14.939Z,1.70
2017-12-28T04:56:41.311Z,1.80
2017-12-28T04:59:08.416Z,1.80
2017-12-28T05:01:34.783Z,1.80
2017-12-28T05:04:01.303Z,1.90
2017-12-28T05:06:27.679Z,2.00
2017-12-28T05:08:54.043Z,2.00
2017-12-28T05:11:20.495Z,2.00
2017-12-28T05:13:46.854Z,2.10
2017-12-28T05:16:13.240Z,2.10
2017-12-28T05:18:39.699Z,2.10
2017-12-28T05:21:06.318Z,2.10
2017-12-28T05:23:33.506Z,2.10
2017-12-28T05:25:59.874Z,2.00
2017-12-28T05:28:27.772Z,2.00
2017-12-28T05:30:54.311Z,2.00
2017-12-28T05:33:20.683Z,2.00
2017-12-28T05:35:47.029Z,2.00
2017-12-28T05:38:13.430Z,2.10
2017-12-28T05:40:39.882Z,2.10
2017-12-28T05:43:06.739Z,2.10
2017-12-28T05:45:33.201Z,2.20
2017-12-28T05:48:00.284Z,2.20
2017-12-28T05:50:26.652Z,2.10
2017-12-28T05:52:52.962Z,2.20
2017-12-28T05:55:19.349Z,2.20
2017-12-28T05:57:46.527Z,2.20
2017-12-28T06:00:13.734Z,2.20
2017-12-28T06:02:40.091Z,2.20
2017-12-28T06:05:06.573Z,2.20
2017-12-28T06:07:33.003Z,2.20
2017-12-28T06:09:59.467Z,2.70
2017-12-28T06:12:25.927Z,2.20
2017-12-28T06:14:53.051Z,2.10
2017-12-28T06:17:19.427Z,2.10
2017-12-28T06:19:45.768Z,2.10
2017-12-28T06:22:12.116Z,2.00
2017-12-28T06:24:38.442Z,2.00
2017-12-28T06:27:05.480Z,2.00
2017-12-28T06:29:31.964Z,1.90
2017-12-28T06:31:59.281Z,1.70
2017-12-28T06:37:19.507Z,1.60
2017-12-28T06:39:45.853Z,1.60
2017-12-28T06:42:12.179Z,1.60
2017-12-28T06:44:38.695Z,1.50
2017-12-28T06:47:05.126Z,1.40
2017-12-28T06:49:32.347Z,1.20
2017-12-28T06:51:58.731Z,1.20
2017-12-28T06:54:25.170Z,1.20
2017-12-28T06:56:51.539Z,1.10
2017-12-28T06:59:18.075Z,1.10
2017-12-28T07:01:46.189Z,1.30
2017-12-28T07:04:12.543Z,1.30
2017-12-28T07:06:39.697Z,1.30
2017-12-28T07:09:06.235Z,1.30
2017-12-28T07:11:33.419Z,1.40
2017-12-28T07:13:59.977Z,1.40
2017-12-28T07:16:26.391Z,1.40
2017-12-28T07:18:53.847Z,1.40
2017-12-28T07:21:20.308Z,1.40
2017-12-28T07:23:47.712Z,1.20
2017-12-28T07:26:14.174Z,1.30
2017-12-28T07:28:42.111Z,1.40
2017-12-28T07:31:09.390Z,1.50
2017-12-28T07:33:35.791Z,1.40
2017-12-28T07:36:02.266Z,1.50
2017-12-28T07:38:28.710Z,1.60
2017-12-28T07:40:55.128Z,1.70
2017-12-28T07:43:21.595Z,1.70
2017-12-28T07:45:48.115Z,1.60
2017-12-28T07:48:14.528Z,1.60
2017-12-28T07:50:41.815Z,1.50
2017-12-28T07:53:09.007Z,1.40
2017-12-28T07:55:35.479Z,1.40
2017-12-28T07:58:01.856Z,1.40
2017-12-28T08:00:28.244Z,1.30
2017-12-28T08:02:54.707Z,1.30
2017-12-28T08:05:21.306Z,1.30
2017-12-28T08:07:47.842Z,1.20
2017-12-28T08:10:14.941Z,1.30
2017-12-28T08:12:41.716Z,1.20
2017-12-28T08:15:08.188Z,1.30
2017-12-28T08:17:34.671Z,1.30
2017-12-28T08:20:01.300Z,1.40
2017-12-28T08:22:27.682Z,1.40
2017-12-28T08:24:54.120Z,1.40
2017-12-28T08:27:21.272Z,1.40
2017-12-28T08:29:47.690Z,1.40
2017-12-28T08:32:14.784Z,1.40
2017-12-28T08:34:41.261Z,1.30
2017-12-28T08:37:07.744Z,1.40
2017-12-28T08:39:34.123Z,1.40
2017-12-28T08:42:01.242Z,1.50
2017-12-28T08:44:27.980Z,1.50
2017-12-28T08:46:55.923Z,1.70
2017-12-28T08:49:24.318Z,1.70
2017-12-28T08:51:50.807Z,1.90
2017-12-28T08:54:17.317Z,2.00
2017-12-28T08:56:44.575Z,2.00
2017-12-28T08:59:10.994Z,2.00
2017-12-28T09:01:37.473Z,2.00
2017-12-28T09:04:07.084Z,2.10
2017-12-28T09:06:34.312Z,2.10
2017-12-28T09:09:00.912Z,2.00
2017-12-28T09:11:27.352Z,2.10
2017-12-28T09:13:53.983Z,2.10
2017-12-28T09:16:20.410Z,2.10
2017-12-28T09:18:46.979Z,2.20
2017-12-28T09:21:13.667Z,2.20
2017-12-28T09:23:40.169Z,2.20
2017-12-28T09:26:06.607Z,2.30
2017-12-28T09:28:33.220Z,2.40
2017-12-28T09:31:01.257Z,2.50
2017-12-28T09:33:27.860Z,2.60
2017-12-28T09:35:55.135Z,2.70
2017-12-28T09:38:21.749Z,2.60
2017-12-28T09:40:48.242Z,2.80
2017-12-28T09:43:14.766Z,2.80
2017-12-28T09:45:41.986Z,2.80
2017-12-28T09:48:09.188Z,2.90
2017-12-28T09:50:35.677Z,2.80
2017-12-28T09:53:02.185Z,2.90
2017-12-28T09:55:30.447Z,2.80
2017-12-28T09:57:56.895Z,2.80
2017-12-28T10:00:23.429Z,2.90
2017-12-28T10:02:51.406Z,2.90
2017-12-28T10:05:19.668Z,2.90
2017-12-28T10:07:46.193Z,2.90
2017-12-28T10:10:12.591Z,3.00
2017-12-28T10:12:39.108Z,3.10
2017-12-28T10:15:05.601Z,3.10
2017-12-28T10:17:32.115Z,3.10
2017-12-28T10:19:58.731Z,3.10
2017-12-28T10:22:25.264Z,3.00
2017-12-28T10:24:51.785Z,3.10
2017-12-28T10:27:18.401Z,3.10
2017-12-28T10:29:45.720Z,3.20
2017-12-28T10:32:12.155Z,3.20
2017-12-28T10:34:41.283Z,3.30
2017-12-28T10:37:07.722Z,3.30
2017-12-28T10:39:34.286Z,3.40
2017-12-28T10:42:01.595Z,3.40
2017-12-28T10:44:28.225Z,3.40
2017-12-28T10:46:54.679Z,3.40
2017-12-28T10:49:21.558Z,3.40
2017-12-28T10:51:48.211Z,3.40
2017-12-28T10:54:14.743Z,3.40
2017-12-28T10:56:41.314Z,3.40
2017-12-28T10:59:07.724Z,3.40
2017-12-28T11:01:35.480Z,3.40
2017-12-28T11:04:01.864Z,3.30
2017-12-28T11:06:29.020Z,3.20
2017-12-28T11:08:55.701Z,3.10
2017-12-28T11:11:22.169Z,3.10
2017-12-28T11:13:48.620Z,3.10
2017-12-28T11:16:15.034Z,3.20
2017-12-28T11:18:41.671Z,3.20
2017-12-28T11:21:10.053Z,3.20
2017-12-28T11:23:36.509Z,3.20
2017-12-28T11:26:06.535Z,3.50
2017-12-28T11:28:33.011Z,3.40
2017-12-28T11:30:59.433Z,3.60
2017-12-28T11:33:27.395Z,3.80
2017-12-28T11:35:53.936Z,3.70
2017-12-28T11:38:20.474Z,3.90
2017-12-28T11:40:48.835Z,4.00
2017-12-28T11:43:15.295Z,4.00
2017-12-28T11:45:41.876Z,4.00
2017-12-28T11:48:08.490Z,4.10
2017-12-28T11:50:41.567Z,4.20
2017-12-28T11:53:08.214Z,4.20
2017-12-28T11:55:36.439Z,4.40
2017-12-28T11:58:05.079Z,4.40
2017-12-28T12:00:38.378Z,4.40
2017-12-28T12:03:06.429Z,4.40
2017-12-28T12:05:41.144Z,4.40
2017-12-28T12:08:10.135Z,4.40
2017-12-28T12:10:36.773Z,4.50
2017-12-28T12:13:03.802Z,4.50
2017-12-28T12:15:31.039Z,4.50
2017-12-28T12:17:57.557Z,4.60
2017-12-28T12:20:24.090Z,4.70
2017-12-28T12:22:50.668Z,4.70
2017-12-28T12:25:17.261Z,4.60
2017-12-28T12:27:43.802Z,4.60
2017-12-28T12:30:10.485Z,4.60
2017-12-28T12:32:37.099Z,4.50
2017-12-28T12:35:04.009Z,4.50
2017-12-28T12:37:30.567Z,4.60
2017-12-28T12:39:57.047Z,4.60
2017-12-28T12:42:23.537Z,4.60
2017-12-28T12:44:50.112Z,4.70
2017-12-28T12:47:16.552Z,4.80
2017-12-28T12:49:43.002Z,4.90
2017-12-28T12:52:09.472Z,5.00
2017-12-28T12:54:35.972Z,5.00
2017-12-28T12:57:02.425Z,5.00
2017-12-28T12:59:28.911Z,5.00
2017-12-28T13:01:55.551Z,5.00
2017-12-28T13:04:22.044Z,5.00
2017-12-28T13:06:48.514Z,5.10
2017-12-28T13:09:15.160Z,5.10
2017-12-28T13:11:41.550Z,5.00
2017-12-28T13:14:08.007Z,4.80
2017-12-28T13:16:34.476Z,4.80
2017-12-28T13:19:01.206Z,4.80
2017-12-28T13:21:27.727Z,4.70
2017-12-28T13:23:54.187Z,4.60
2017-12-28T13:26:20.803Z,4.40
2017-12-28T13:28:47.557Z,4.40
2017-12-28T13:31:14.791Z,4.30
2017-12-28T13:33:41.280Z,4.20
2017-12-28T13:36:08.468Z,4.10
2017-12-28T13:38:35.023Z,4.00
2017-12-28T13:41:02.295Z,4.00
2017-12-28T13:43:28.716Z,4.00
2017-12-28T13:45:55.372Z,4.00
2017-12-28T13:48:21.843Z,4.00
2017-12-28T13:50:48.283Z,3.90
2017-12-28T13:53:14.715Z,3.90
2017-12-28T13:55:41.794Z,3.90
2017-12-28T13:58:08.538Z,4.00
2017-12-28T14:00:36.449Z,4.00
2017-12-28T14:03:03.099Z,4.00
2017-12-28T14:05:30.362Z,3.90
2017-12-28T14:07:56.775Z,3.90
2017-12-28T14:10:24.639Z,3.70
2017-12-28T14:12:51.094Z,3.70
2017-12-28T14:15:17.508Z,3.70
2017-12-28T14:17:43.979Z,3.70
2017-12-28T14:20:11.172Z,3.60
2017-12-28T14:22:37.949Z,3.60
2017-12-28T14:25:04.350Z,3.60
2017-12-28T14:27:31.846Z,3.60
2017-12-28T14:29:59.015Z,3.50
2017-12-28T14:32:26.310Z,3.60
2017-12-28T14:34:53.507Z,3.60
2017-12-28T14:37:20.000Z,3.60
2017-12-28T14:39:48.164Z,3.60
2017-12-28T14:42:14.605Z,3.60
2017-12-28T14:44:41.051Z,3.50
2017-12-28T14:47:08.087Z,3.50
2017-12-28T14:49:35.452Z,3.40
2017-12-28T14:52:03.179Z,3.40
2017-12-28T14:54:30.381Z,3.40
2017-12-28T14:56:58.921Z,3.40
2017-12-28T14:59:26.151Z,3.40
2017-12-28T15:01:52.562Z,3.40
2017-12-28T15:04:19.606Z,3.50
2017-12-28T15:06:48.023Z,3.50
2017-12-28T15:09:14.420Z,3.50
2017-12-28T15:11:40.924Z,3.40
2017-12-28T15:14:08.151Z,3.30
2017-12-28T15:16:34.652Z,3.30
2017-12-28T15:19:01.994Z,3.20
2017-12-28T15:21:28.538Z,3.10
2017-12-28T15:23:55.108Z,3.00
2017-12-28T15:26:21.713Z,2.90
2017-12-28T15:28:48.431Z,2.90
2017-12-28T15:31:14.899Z,2.90
2017-12-28T15:33:42.727Z,3.60
2017-12-28T15:36:10.709Z,2.90
2017-12-28T15:38:37.200Z,2.80
2017-12-28T15:41:03.805Z,2.90
2017-12-28T15:43:30.490Z,2.90
2017-12-28T15:45:57.184Z,2.90
2017-12-28T15:48:23.930Z,2.90
2017-12-28T15:50:50.543Z,2.80
2017-12-28T15:53:17.043Z,2.80
2017-12-28T15:55:43.797Z,2.80
2017-12-28T15:58:10.796Z,2.50
2017-12-28T16:00:37.405Z,2.60
2017-12-28T16:03:04.669Z,2.60
2017-12-28T16:05:31.201Z,2.70
2017-12-28T16:07:57.648Z,2.70
2017-12-28T16:10:24.749Z,2.80
2017-12-28T16:12:51.382Z,2.80
2017-12-28T16:15:17.879Z,2.90
2017-12-28T16:17:45.108Z,2.80
2017-12-28T16:20:12.384Z,2.80
2017-12-28T16:22:38.823Z,2.80
2017-12-28T16:25:05.796Z,2.70
2017-12-28T16:27:32.312Z,2.60
2017-12-28T16:29:58.731Z,2.60
2017-12-28T16:32:25.144Z,2.50
2017-12-28T16:34:51.759Z,2.40
2017-12-28T16:37:18.130Z,2.30
2017-12-28T16:39:44.534Z,2.30
2017-12-28T16:42:11.175Z,2.40
2017-12-28T16:44:37.644Z,2.40
2017-12-28T16:47:04.713Z,2.30
2017-12-28T16:49:31.217Z,2.20
2017-12-28T16:51:57.653Z,2.30
2017-12-28T16:54:24.778Z,2.10
2017-12-28T16:56:51.217Z,2.10
2017-12-28T16:59:17.665Z,2.10
2017-12-28T17:01:44.859Z,2.10
2017-12-28T17:04:11.283Z,2.10
2017-12-28T17:06:38.457Z,2.20
2017-12-28T17:09:05.682Z,1.80
2017-12-28T17:11:32.899Z,2.30
2017-12-28T17:14:00.019Z,2.30
2017-12-28T17:16:26.449Z,2.30
2017-12-28T17:18:52.861Z,2.40
2017-12-28T17:21:20.090Z,2.40
2017-12-28T17:23:47.303Z,2.30
2017-12-28T17:26:13.756Z,2.20
2017-12-28T17:28:40.146Z,2.20
2017-12-28T17:31:08.055Z,2.00
2017-12-28T17:33:34.520Z,2.00
2017-12-28T17:36:00.875Z,1.90
2017-12-28T17:38:27.333Z,1.90
2017-12-28T17:40:53.761Z,2.10
2017-12-28T17:43:20.247Z,2.20
2017-12-28T17:45:47.466Z,2.20
2017-12-28T17:48:13.921Z,2.20
2017-12-28T17:50:40.447Z,2.40
2017-12-28T17:53:07.899Z,2.40
2017-12-28T17:55:35.008Z,2.40
2017-12-28T17:58:02.478Z,2.40
2017-12-28T18:00:28.859Z,2.40
2017-12-28T18:02:55.536Z,2.50
2017-12-28T18:05:22.003Z,2.50
2017-12-28T18:07:48.500Z,2.50
2017-12-28T18:10:15.738Z,2.50
2017-12-28T18:12:42.162Z,2.40
2017-12-28T18:15:08.617Z,2.30
2017-12-28T18:17:35.932Z,2.20
2017-12-28T18:20:02.734Z,2.20
2017-12-28T18:22:30.049Z,2.20
2017-12-28T18:24:56.454Z,2.10
2017-12-28T18:27:22.871Z,2.20
2017-12-28T18:29:49.320Z,2.40
2017-12-28T18:32:15.778Z,2.20
2017-12-28T18:34:42.195Z,2.30
2017-12-28T18:37:08.658Z,2.20
2017-12-28T18:39:35.090Z,2.20
2017-12-28T18:42:01.479Z,2.90
2017-12-28T18:44:27.898Z,2.30
2017-12-28T18:46:54.319Z,2.40
2017-12-28T18:49:20.768Z,2.50
2017-12-28T18:51:47.175Z,2.60
2017-12-28T18:54:14.352Z,2.60
2017-12-28T18:56:40.751Z,2.60
2017-12-28T18:59:07.488Z,2.70
2017-12-28T19:01:33.881Z,2.70
2017-12-28T19:04:00.930Z,2.70
2017-12-28T19:06:28.110Z,2.80
2017-12-28T19:08:54.471Z,2.70
2017-12-28T19:11:20.883Z,2.80
2017-12-28T19:13:48.091Z,2.80
2017-12-28T19:16:15.088Z,2.70
2017-12-28T19:18:42.362Z,2.80
2017-12-28T19:21:08.831Z,2.80
2017-12-28T19:23:35.344Z,2.90
2017-12-28T19:26:01.908Z,2.90
2017-12-28T19:28:29.148Z,2.90
2017-12-28T19:30:55.592Z,2.80
2017-12-28T19:33:22.022Z,2.90
2017-12-28T19:35:48.805Z,2.90
2017-12-28T19:38:15.483Z,2.90
2017-12-28T19:40:41.978Z,2.90
2017-12-28T19:43:08.418Z,2.90
2017-12-28T19:45:34.859Z,2.90
2017-12-28T19:48:01.490Z,2.90
2017-12-28T19:50:27.835Z,2.90
2017-12-28T19:52:54.267Z,2.90
2017-12-28T19:55:20.675Z,2.90
2017-12-28T19:57:47.133Z,2.90
2017-12-28T20:00:13.618Z,2.80
2017-12-28T20:02:40.022Z,2.80
2017-12-28T20:05:06.878Z,2.70
2017-12-28T20:07:34.030Z,2.50
2017-12-28T20:10:00.546Z,2.50
2017-12-28T20:12:26.988Z,2.50
2017-12-28T20:14:53.553Z,2.50
2017-12-28T20:17:19.979Z,2.50
2017-12-28T20:19:46.452Z,2.60
2017-12-28T20:22:12.999Z,2.60
2017-12-28T20:24:39.478Z,2.60
2017-12-28T20:27:06.667Z,2.70
2017-12-28T20:29:33.060Z,2.70
2017-12-28T20:31:59.625Z,2.70
2017-12-28T20:34:26.017Z,2.70
2017-12-28T20:36:52.429Z,2.70
2017-12-28T20:39:18.858Z,2.70
2017-12-28T20:41:46.030Z,2.80
2017-12-28T20:44:13.192Z,2.70
2017-12-28T20:46:39.756Z,2.70
2017-12-28T20:49:06.651Z,2.80
2017-12-28T20:51:33.131Z,2.90
2017-12-28T20:53:59.525Z,2.80
2017-12-28T20:56:25.971Z,2.80
2017-12-28T20:58:52.439Z,2.80
2017-12-28T21:01:18.852Z,2.60
2017-12-28T21:03:45.335Z,2.70
2017-12-28T21:06:11.746Z,2.60
2017-12-28T21:08:38.143Z,2.40
2017-12-28T21:11:05.066Z,2.30
2017-12-28T21:13:31.554Z,2.20
2017-12-28T21:15:58.702Z,2.00
2017-12-28T21:18:25.117Z,2.00
2017-12-28T21:20:51.524Z,2.00
2017-12-28T21:23:17.986Z,1.90
2017-12-28T21:25:44.419Z,1.90
2017-12-28T21:28:11.602Z,1.80
2017-12-28T21:30:38.033Z,1.80
2017-12-28T21:33:04.520Z,1.70
2017-12-28T21:35:31.778Z,1.60
2017-12-28T21:37:58.201Z,1.60
2017-12-28T21:40:25.481Z,1.50
2017-12-28T21:42:51.903Z,1.40
2017-12-28T21:45:18.334Z,1.40
2017-12-28T21:47:45.007Z,1.40
2017-12-28T21:50:11.398Z,1.30
2017-12-28T21:52:37.902Z,1.40
2017-12-28T21:55:05.581Z,1.20
2017-12-28T21:57:32.100Z,1.20
2017-12-28T21:59:58.563Z,1.30
2017-12-28T22:02:25.023Z,1.30
2017-12-28T22:04:51.422Z,1.20
2017-12-28T22:07:17.934Z,1.20
2017-12-28T22:09:45.045Z,1.10
2017-12-28T22:12:11.501Z,1.40
2017-12-28T22:14:37.931Z,1.10
2017-12-28T22:17:05.022Z,1.20
2017-12-28T22:19:31.642Z,1.30
2017-12-28T22:21:58.066Z,1.50
2017-12-28T22:24:24.550Z,1.60
2017-12-28T22:26:50.974Z,1.70
2017-12-28T22:29:17.390Z,1.80
2017-12-28T22:31:44.539Z,1.50
2017-12-28T22:34:11.788Z,1.60
2017-12-28T22:36:38.238Z,1.60
2017-12-28T22:39:05.382Z,1.60
2017-12-28T22:41:31.931Z,1.50
2017-12-28T22:43:58.335Z,1.40
2017-12-28T22:46:24.778Z,1.30
2017-12-28T22:48:51.266Z,1.20
2017-12-28T22:51:18.442Z,1.10
2017-12-28T22:53:44.924Z,1.00
2017-12-28T22:56:12.074Z,1.10
2017-12-28T22:58:38.514Z,0.80
2017-12-28T23:01:05.742Z,1.10
2017-12-28T23:03:33.008Z,1.00
2017-12-28T23:05:59.458Z,0.90
2017-12-28T23:08:26.630Z,0.90
2017-12-28T23:10:53.038Z,0.90
2017-12-28T23:13:20.233Z,0.90
2017-12-28T23:15:46.618Z,0.80
2017-12-28T23:18:13.122Z,0.90
2017-12-28T23:20:40.475Z,0.80
2017-12-28T23:23:06.988Z,0.80
2017-12-28T23:25:33.379Z,0.70
2017-12-28T23:27:59.834Z,0.70
2017-12-28T23:30:26.244Z,0.70
2017-12-28T23:32:52.641Z,0.70
2017-12-28T23:35:19.803Z,0.60
2017-12-28T23:37:46.963Z,0.60
2017-12-28T23:40:13.377Z,0.60
2017-12-28T23:42:40.574Z,0.50
2017-12-28T23:45:07.461Z,0.50
2017-12-28T23:47:33.920Z,0.60
2017-12-28T23:50:00.335Z,0.60
2017-12-28T23:52:26.764Z,0.60
2017-12-28T23:54:53.239Z,0.60
2017-12-28T23:57:20.602Z,0.60
2017-12-28T23:59:46.937Z,0.60
